Time;durP1;ratioP1;P1;durP2;ratioP2;P2;SDS_P1;SDS_P2;PMS_P1;PMS_P2;Temp;Humidity;BMP_temperature;BMP_pressure;BME280_temperature;BME280_humidity;BME280_pressure;Samples;Min_cycle;Max_cycle;Signal;HPM_P1;HPM_P2
2022/10/30 00:00:25;;;;;;;18.65;11.30;;;13.50;99.90;;;;;;5051583;28;20364;-73
2022/10/30 00:02:50;;;;;;;18.90;13.27;;;13.50;99.90;;;;;;5021226;28;20026;-73
2022/10/30 00:05:16;;;;;;;16.88;11.88;;;13.50;99.90;;;;;;5020417;28;20442;-72
2022/10/30 00:07:42;;;;;;;19.27;11.75;;;13.50;99.90;;;;;;5051590;28;20035;-73
2022/10/30 00:10:08;;;;;;;14.55;10.73;;;13.40;99.90;;;;;;5051701;28;20021;-74
2022/10/30 00:12:34;;;;;;;20.55;13.38;;;13.40;99.90;;;;;;5033993;28;20425;-73
2022/10/30 00:15:00;;;;;;;18.08;12.82;;;13.40;99.90;;;;;;5051636;28;20104;-74
2022/10/30 00:17:26;;;;;;;17.33;12.63;;;13.30;99.90;;;;;;5051452;28;20116;-73
2022/10/30 00:19:51;;;;;;;16.63;11.38;;;13.20;99.90;;;;;;5051638;28;20112;-74
2022/10/30 00:22:17;;;;;;;19.17;11.63;;;13.10;99.90;;;;;;5051652;28;20382;-74
2022/10/30 00:24:42;;;;;;;21.65;12.25;;;13.20;99.90;;;;;;5051493;28;20378;-74
2022/10/30 00:27:08;;;;;;;19.98;11.73;;;13.20;99.90;;;;;;5033614;28;20483;-73
2022/10/30 00:29:34;;;;;;;16.83;11.60;;;13.10;99.90;;;;;;5051488;28;20028;-74
2022/10/30 00:31:59;;;;;;;21.58;12.93;;;13.00;99.90;;;;;;5033600;28;20060;-73
2022/10/30 00:34:25;;;;;;;16.55;11.52;;;13.00;99.90;;;;;;5051457;28;20386;-73
2022/10/30 00:36:50;;;;;;;18.38;11.65;;;13.00;99.90;;;;;;5022129;28;20064;-72
2022/10/30 00:39:16;;;;;;;20.08;14.07;;;13.00;99.90;;;;;;5013811;28;20076;-74
2022/10/30 00:41:41;;;;;;;22.83;14.02;;;13.00;99.90;;;;;;5031422;28;20079;-74
2022/10/30 00:44:31;;;;;;;20.15;12.55;;;13.00;99.90;;;;;;5031529;28;20075;-74
2022/10/30 00:47:03;;;;;;;24.52;12.27;;;13.00;99.90;;;;;;5031217;28;20038;-74
2022/10/30 00:49:34;;;;;;;21.23;13.45;;;12.90;99.90;;;;;;5031421;28;20022;-76
2022/10/30 00:52:01;;;;;;;16.83;12.50;;;12.90;99.90;;;;;;5031357;28;20045;-73
2022/10/30 00:54:27;;;;;;;21.92;12.75;;;12.90;99.90;;;;;;5031355;28;20101;-73
2022/10/30 00:56:53;;;;;;;17.15;12.23;;;12.90;99.90;;;;;;5030877;28;20104;-74
2022/10/30 00:59:23;;;;;;;18.80;13.18;;;12.90;99.90;;;;;;5036452;28;20093;-73
2022/10/30 01:01:50;;;;;;;21.75;12.38;;;13.00;99.90;;;;;;5035704;28;20028;-74
2022/10/30 01:04:16;;;;;;;22.35;13.02;;;12.90;99.90;;;;;;5031238;28;20384;-74
2022/10/30 01:06:47;;;;;;;20.67;12.80;;;13.00;99.90;;;;;;5031210;28;20025;-74
2022/10/30 01:09:13;;;;;;;20.25;11.60;;;13.00;99.90;;;;;;5010154;28;20029;-74
2022/10/30 01:11:39;;;;;;;17.60;11.35;;;13.00;99.90;;;;;;5048783;28;20506;-74
2022/10/30 01:14:07;;;;;;;16.70;11.45;;;13.10;99.90;;;;;;5051168;28;20061;-74
2022/10/30 01:16:54;;;;;;;20.20;12.35;;;13.10;99.90;;;;;;5051022;28;20447;-73
2022/10/30 01:19:55;;;;;;;17.00;11.73;;;13.00;99.90;;;;;;5033140;28;20041;-72
2022/10/30 01:22:39;;;;;;;19.42;12.82;;;13.10;99.90;;;;;;5051096;28;20028;-73
2022/10/30 01:25:20;;;;;;;21.05;12.13;;;13.10;99.90;;;;;;5051084;28;20029;-72
2022/10/30 01:28:01;;;;;;;19.70;11.25;;;13.20;99.90;;;;;;5051636;28;20028;-73
2022/10/30 01:31:01;;;;;;;18.35;11.65;;;13.20;99.90;;;;;;5036689;28;20025;-71
2022/10/30 01:33:42;;;;;;;14.55;10.75;;;13.20;99.90;;;;;;5017358;28;20583;-72
2022/10/30 01:36:35;;;;;;;18.63;11.38;;;13.10;99.90;;;;;;5034796;28;20053;-73
2022/10/30 01:39:11;;;;;;;21.30;12.75;;;13.20;99.90;;;;;;5034506;28;20386;-73
2022/10/30 01:41:36;;;;;;;24.42;14.77;;;13.10;99.90;;;;;;5035091;28;20034;-74
2022/10/30 01:44:07;;;;;;;16.85;13.45;;;12.90;99.90;;;;;;5016838;28;20437;-74
2022/10/30 01:46:52;;;;;;;21.75;12.98;;;12.90;99.90;;;;;;5016982;28;20464;-74
2022/10/30 01:49:38;;;;;;;16.77;11.75;;;13.00;99.90;;;;;;5022109;28;20025;-74
2022/10/30 01:52:45;;;;;;;16.80;11.75;;;12.90;99.90;;;;;;5034206;28;20026;-74
2022/10/30 01:55:55;;;;;;;17.92;12.48;;;12.90;99.90;;;;;;5030509;28;20033;-73
2022/10/30 01:58:43;;;;;;;21.90;12.52;;;13.00;99.90;;;;;;5022106;28;20033;-73
2022/10/30 02:01:09;;;;;;;19.20;12.95;;;13.00;99.90;;;;;;5014447;28;20120;-74
2022/10/30 02:03:35;;;;;;;20.67;12.93;;;13.00;99.90;;;;;;5034210;28;20100;-75
2022/10/30 02:06:00;;;;;;;17.45;13.40;;;13.40;99.90;;;;;;5034260;28;20026;-75
2022/10/30 02:08:26;;;;;;;19.65;13.45;;;13.20;99.90;;;;;;5033923;28;20030;-74
2022/10/30 02:10:53;;;;;;;22.25;13.40;;;13.20;99.90;;;;;;5045794;28;20029;-74
2022/10/30 02:13:19;;;;;;;18.30;13.13;;;13.30;99.90;;;;;;5046137;28;20053;-74
2022/10/30 02:15:46;;;;;;;17.85;13.13;;;13.30;99.90;;;;;;5033830;28;20034;-74
2022/10/30 02:18:12;;;;;;;17.98;12.95;;;13.30;99.90;;;;;;5033822;28;20020;-74
2022/10/30 02:20:38;;;;;;;19.92;12.23;;;13.30;99.90;;;;;;5033865;28;20013;-74
2022/10/30 02:23:05;;;;;;;20.13;12.13;;;13.30;99.90;;;;;;5021153;28;20039;-73
2022/10/30 02:25:31;;;;;;;17.33;11.75;;;13.30;99.90;;;;;;5032349;28;20021;-75
2022/10/30 02:27:56;;;;;;;18.73;11.65;;;13.30;99.90;;;;;;5033486;28;20048;-74
2022/10/30 02:30:22;;;;;;;22.48;12.10;;;13.30;99.90;;;;;;5033660;28;20025;-74
2022/10/30 02:32:48;;;;;;;18.35;12.07;;;13.20;99.90;;;;;;5033609;28;20056;-73
2022/10/30 02:35:13;;;;;;;25.15;13.02;;;13.30;99.90;;;;;;5020297;28;20025;-75
2022/10/30 02:37:39;;;;;;;20.13;12.10;;;13.20;99.90;;;;;;5029069;28;20498;-73
2022/10/30 02:40:07;;;;;;;18.00;11.50;;;13.10;99.90;;;;;;5028211;28;20059;-73
2022/10/30 02:42:33;;;;;;;15.90;11.52;;;13.00;99.90;;;;;;5034024;28;20021;-73
2022/10/30 02:44:58;;;;;;;17.73;12.55;;;13.20;99.90;;;;;;5033588;28;20475;-73
2022/10/30 02:47:24;;;;;;;21.15;12.38;;;13.10;99.90;;;;;;5046709;28;20036;-74
2022/10/30 02:49:49;;;;;;;19.63;12.18;;;13.10;99.90;;;;;;5046439;28;20111;-73
2022/10/30 02:52:15;;;;;;;16.38;13.75;;;13.10;99.90;;;;;;5047040;28;20032;-73
2022/10/30 02:54:41;;;;;;;18.33;12.57;;;12.70;99.90;;;;;;5046470;28;20370;-73
2022/10/30 02:57:07;;;;;;;18.23;12.30;;;12.70;99.90;;;;;;5039792;28;20032;-74
2022/10/30 02:59:33;;;;;;;19.58;12.63;;;12.70;99.90;;;;;;5035356;28;20059;-75
2022/10/30 03:01:59;;;;;;;22.02;15.35;;;12.80;99.90;;;;;;5033320;28;20138;-75
2022/10/30 03:04:24;;;;;;;19.05;14.02;;;12.80;99.90;;;;;;5046120;28;20021;-75
2022/10/30 03:06:50;;;;;;;23.52;15.45;;;12.90;99.90;;;;;;5053057;28;20035;-74
2022/10/30 03:09:15;;;;;;;21.10;15.10;;;12.60;99.90;;;;;;5040227;28;20040;-74
2022/10/30 03:11:43;;;;;;;27.42;16.52;;;12.50;99.90;;;;;;5052350;28;20025;-73
2022/10/30 03:14:09;;;;;;;20.55;13.75;;;12.40;99.90;;;;;;5039726;28;20444;-75
2022/10/30 03:16:35;;;;;;;20.33;13.80;;;12.50;99.90;;;;;;5028503;28;20064;-73
2022/10/30 03:19:01;;;;;;;21.05;13.95;;;12.40;99.90;;;;;;5027991;28;20025;-73
2022/10/30 03:21:27;;;;;;;19.55;13.63;;;12.50;99.90;;;;;;5021494;28;20028;-73
2022/10/30 03:23:53;;;;;;;19.02;12.75;;;12.50;99.90;;;;;;5052715;28;20025;-75
2022/10/30 03:26:20;;;;;;;20.95;13.38;;;12.50;99.90;;;;;;5033170;28;20108;-75
2022/10/30 03:28:45;;;;;;;19.45;11.73;;;12.50;99.90;;;;;;5027336;28;20025;-73
2022/10/30 03:31:14;;;;;;;16.48;12.65;;;12.60;99.90;;;;;;5038888;28;20492;-75
2022/10/30 03:33:41;;;;;;;17.83;13.52;;;12.60;99.90;;;;;;5039604;28;20036;-74
2022/10/30 03:36:08;;;;;;;21.38;13.80;;;12.60;99.90;;;;;;5045697;28;20025;-74
2022/10/30 03:38:35;;;;;;;22.27;16.35;;;12.60;99.90;;;;;;5045809;28;20104;-73
2022/10/30 03:41:00;;;;;;;20.95;15.38;;;12.70;99.90;;;;;;5019231;28;20022;-74
2022/10/30 03:43:27;;;;;;;31.55;22.00;;;12.60;99.90;;;;;;5031172;28;20079;-74
2022/10/30 03:45:54;;;;;;;28.15;19.98;;;12.70;99.90;;;;;;5032462;28;20376;-74
2022/10/30 03:48:21;;;;;;;23.63;19.02;;;12.70;99.90;;;;;;5034273;28;20075;-73
2022/10/30 03:50:47;;;;;;;23.73;17.48;;;12.70;99.90;;;;;;5012012;28;20478;-73
2022/10/30 03:53:13;;;;;;;20.23;13.90;;;12.80;99.90;;;;;;5039338;28;20061;-73
2022/10/30 03:55:39;;;;;;;24.25;16.10;;;12.80;99.90;;;;;;5052263;28;20021;-73
2022/10/30 03:58:05;;;;;;;21.08;15.38;;;12.60;99.90;;;;;;5051956;28;20027;-74
2022/10/30 04:00:31;;;;;;;22.35;15.32;;;12.70;99.90;;;;;;5025682;28;20079;-75
2022/10/30 04:02:58;;;;;;;22.58;15.30;;;12.70;99.90;;;;;;5052085;28;20255;-73
2022/10/30 04:05:25;;;;;;;22.33;15.45;;;12.60;99.90;;;;;;5034262;28;20530;-73
2022/10/30 04:07:59;;;;;;;23.67;15.82;;;12.60;99.90;;;;;;5051700;28;20044;-73
2022/10/30 04:10:25;;;;;;;21.75;15.30;;;12.60;99.90;;;;;;5051806;28;20043;-73
2022/10/30 04:12:51;;;;;;;25.08;16.63;;;12.50;99.90;;;;;;5033848;28;20075;-74
2022/10/30 04:15:17;;;;;;;31.27;17.85;;;12.40;99.90;;;;;;5033921;28;20033;-74
2022/10/30 04:17:50;;;;;;;28.73;18.58;;;12.40;99.90;;;;;;5051360;28;20029;-74
2022/10/30 04:20:17;;;;;;;29.75;17.38;;;12.40;99.90;;;;;;5051595;28;20032;-74
2022/10/30 04:22:43;;;;;;;23.63;16.65;;;12.40;99.90;;;;;;5051538;28;20371;-74
2022/10/30 04:25:08;;;;;;;24.42;16.40;;;12.30;99.90;;;;;;5033847;28;20021;-73
2022/10/30 04:27:44;;;;;;;21.13;13.18;;;12.40;99.90;;;;;;5033434;28;20028;-74
2022/10/30 04:30:11;;;;;;;20.42;14.40;;;12.40;99.90;;;;;;5041948;28;20029;-75
2022/10/30 04:32:45;;;;;;;20.70;15.45;;;12.30;99.90;;;;;;5016986;28;20033;-74
2022/10/30 04:35:10;;;;;;;23.23;16.50;;;12.30;99.90;;;;;;5051585;28;20025;-74
2022/10/30 04:37:36;;;;;;;21.75;15.73;;;12.30;99.90;;;;;;5051100;28;20082;-75
2022/10/30 04:40:02;;;;;;;19.50;15.70;;;12.30;99.90;;;;;;5033502;28;20032;-74
2022/10/30 04:42:28;;;;;;;22.90;14.65;;;12.30;99.90;;;;;;5032885;28;20033;-75
2022/10/30 04:44:53;;;;;;;26.50;19.85;;;12.40;99.90;;;;;;5031521;28;20033;-75
2022/10/30 04:47:19;;;;;;;23.33;16.23;;;12.30;99.90;;;;;;5031302;28;20021;-74
2022/10/30 04:49:44;;;;;;;24.50;16.77;;;12.40;99.90;;;;;;5022263;28;20060;-74
2022/10/30 04:52:10;;;;;;;18.95;15.32;;;12.30;99.90;;;;;;5031386;28;20083;-75
2022/10/30 04:54:35;;;;;;;24.75;17.42;;;12.30;99.90;;;;;;5021374;28;20399;-75
2022/10/30 04:57:01;;;;;;;28.02;19.63;;;12.40;99.90;;;;;;5044539;28;20484;-73
2022/10/30 04:59:26;;;;;;;23.20;16.38;;;12.20;99.90;;;;;;5031423;28;20026;-74
2022/10/30 05:01:52;;;;;;;38.08;21.55;;;12.00;99.90;;;;;;5031120;28;20395;-75
2022/10/30 05:04:17;;;;;;;26.77;17.17;;;12.00;99.90;;;;;;5017042;28;20475;-75
2022/10/30 05:06:43;;;;;;;24.25;18.02;;;11.80;99.90;;;;;;5035302;28;20029;-74
2022/10/30 05:09:08;;;;;;;22.33;17.20;;;11.80;99.90;;;;;;5035143;28;20026;-74
2022/10/30 05:11:34;;;;;;;28.92;18.55;;;11.90;99.90;;;;;;5034984;28;20037;-74
2022/10/30 05:13:59;;;;;;;28.63;18.90;;;11.90;99.90;;;;;;5017411;28;20080;-74
2022/10/30 05:16:25;;;;;;;30.10;18.00;;;11.70;99.90;;;;;;5035056;28;20083;-74
2022/10/30 05:18:50;;;;;;;27.17;18.10;;;11.80;99.90;;;;;;5017204;28;20417;-74
2022/10/30 05:21:16;;;;;;;23.92;16.20;;;11.90;99.90;;;;;;5017162;28;20033;-74
2022/10/30 05:23:41;;;;;;;23.77;15.27;;;12.00;99.90;;;;;;5035001;28;20112;-73
2022/10/30 05:26:07;;;;;;;25.02;17.92;;;11.90;99.90;;;;;;5017117;28;20021;-75
2022/10/30 05:28:33;;;;;;;23.83;15.52;;;11.90;99.90;;;;;;5034720;28;20025;-75
2022/10/30 05:30:58;;;;;;;19.63;13.07;;;11.80;99.90;;;;;;5048270;28;20026;-74
2022/10/30 05:33:24;;;;;;;17.30;12.73;;;11.80;99.90;;;;;;5034942;28;20117;-74
2022/10/30 05:35:49;;;;;;;19.98;14.10;;;12.00;99.90;;;;;;5034631;28;20036;-74
2022/10/30 05:38:15;;;;;;;19.08;12.93;;;12.00;99.90;;;;;;5034561;28;20052;-74
2022/10/30 05:40:40;;;;;;;18.25;12.07;;;11.90;99.90;;;;;;5034537;28;20498;-74
2022/10/30 05:43:06;;;;;;;20.17;14.27;;;11.90;99.90;;;;;;5034686;28;20240;-74
2022/10/30 05:45:32;;;;;;;22.27;14.10;;;11.80;99.90;;;;;;5034485;28;20026;-74
2022/10/30 05:47:59;;;;;;;23.63;14.65;;;11.70;99.90;;;;;;5016644;28;20017;-74
2022/10/30 05:50:26;;;;;;;19.65;14.70;;;11.70;99.90;;;;;;5051496;28;20428;-74
2022/10/30 05:53:03;;;;;;;19.27;14.05;;;11.80;99.90;;;;;;5054473;28;20021;-74
2022/10/30 05:55:29;;;;;;;19.90;14.73;;;11.80;99.90;;;;;;5054873;28;20017;-74
2022/10/30 05:58:00;;;;;;;17.85;14.32;;;11.70;99.90;;;;;;5053971;28;20025;-74
2022/10/30 06:00:27;;;;;;;17.50;13.80;;;11.60;99.90;;;;;;5054093;28;20017;-74
2022/10/30 06:03:02;;;;;;;21.60;14.60;;;11.70;99.90;;;;;;5054263;28;20387;-73
2022/10/30 06:05:30;;;;;;;21.10;14.13;;;11.70;99.90;;;;;;5054238;28;20051;-74
2022/10/30 06:07:56;;;;;;;19.42;13.65;;;11.80;99.90;;;;;;5053895;28;20110;-74
2022/10/30 06:10:22;;;;;;;19.85;13.30;;;11.80;99.90;;;;;;5053864;28;20100;-73
2022/10/30 06:13:01;;;;;;;20.15;14.43;;;11.90;99.90;;;;;;5053994;28;20064;-74
2022/10/30 06:15:28;;;;;;;17.80;14.52;;;11.90;99.90;;;;;;5053771;28;20031;-75
2022/10/30 06:17:55;;;;;;;18.38;12.30;;;11.80;99.90;;;;;;5053536;28;20040;-74
2022/10/30 06:20:22;;;;;;;18.98;13.55;;;11.80;99.90;;;;;;5044762;28;20534;-75
2022/10/30 06:22:59;;;;;;;20.90;14.55;;;12.00;99.90;;;;;;5033862;28;20108;-74
2022/10/30 06:25:26;;;;;;;20.55;12.20;;;12.20;99.90;;;;;;5033655;28;20029;-75
2022/10/30 06:27:52;;;;;;;21.80;15.73;;;11.90;99.90;;;;;;5033573;28;20056;-74
2022/10/30 06:30:18;;;;;;;41.65;29.17;;;11.70;99.90;;;;;;5033748;28;20025;-74
2022/10/30 06:32:44;;;;;;;36.20;25.27;;;11.30;99.90;;;;;;5035080;28;20545;-74
2022/10/30 06:35:10;;;;;;;30.35;23.40;;;11.20;99.90;;;;;;5026641;28;20037;-74
2022/10/30 06:37:38;;;;;;;30.65;23.45;;;11.40;99.90;;;;;;5033331;28;20026;-74
2022/10/30 06:40:05;;;;;;;26.15;19.95;;;11.40;99.90;;;;;;5033539;28;20052;-75
2022/10/30 06:42:31;;;;;;;23.63;18.80;;;11.40;99.90;;;;;;5033464;28;20017;-75
2022/10/30 06:44:57;;;;;;;21.08;15.73;;;11.50;99.90;;;;;;5033540;28;20029;-76
2022/10/30 06:47:22;;;;;;;25.83;19.77;;;11.50;99.90;;;;;;5033070;28;20032;-74
2022/10/30 06:49:48;;;;;;;28.73;20.08;;;11.30;99.90;;;;;;5045088;28;20502;-73
2022/10/30 06:52:13;;;;;;;25.02;19.67;;;11.30;99.90;;;;;;5034792;28;20025;-74
2022/10/30 06:54:38;;;;;;;18.58;16.25;;;11.40;99.90;;;;;;5045764;28;20116;-73
2022/10/30 06:57:04;;;;;;;24.60;19.63;;;11.40;99.90;;;;;;5035081;28;20029;-73
2022/10/30 06:59:29;;;;;;;29.75;21.75;;;11.50;99.90;;;;;;5044131;28;20025;-74
2022/10/30 07:01:55;;;;;;;28.42;22.98;;;11.60;99.90;;;;;;5052769;28;20380;-74
2022/10/30 07:04:21;;;;;;;27.83;21.88;;;11.80;99.90;;;;;;5024456;28;20021;-74
2022/10/30 07:06:46;;;;;;;30.63;20.42;;;11.80;99.90;;;;;;5032851;28;20033;-74
2022/10/30 07:09:12;;;;;;;34.22;21.25;;;11.80;99.90;;;;;;5032874;28;20036;-75
2022/10/30 07:11:41;;;;;;;38.28;25.75;;;11.90;99.90;;;;;;5032946;28;20675;-73
2022/10/30 07:14:06;;;;;;;39.55;25.45;;;11.90;99.90;;;;;;5015206;28;20056;-73
2022/10/30 07:16:32;;;;;;;47.20;29.08;;;11.90;99.90;;;;;;5046052;28;20095;-73
2022/10/30 07:18:57;;;;;;;61.58;34.80;;;12.00;99.90;;;;;;5043568;28;20021;-74
2022/10/30 07:21:25;;;;;;;63.20;36.33;;;12.10;99.90;;;;;;5039475;28;20033;-73
2022/10/30 07:23:50;;;;;;;78.78;45.38;;;12.10;99.90;;;;;;5023672;28;20117;-73
2022/10/30 07:26:16;;;;;;;43.47;25.05;;;12.10;99.90;;;;;;5045360;28;20061;-73
2022/10/30 07:28:42;;;;;;;39.78;23.83;;;12.10;99.90;;;;;;5043957;28;20100;-73
2022/10/30 07:31:07;;;;;;;37.70;24.38;;;12.20;99.90;;;;;;5039874;28;20371;-74
2022/10/30 07:33:33;;;;;;;41.65;25.60;;;12.30;99.90;;;;;;5041592;28;20498;-74
2022/10/30 07:36:02;;;;;;;23.20;15.80;;;12.30;99.90;;;;;;5046051;28;20036;-74
2022/10/30 07:38:27;;;;;;;22.70;15.75;;;12.20;99.90;;;;;;5032634;28;20029;-75
2022/10/30 07:40:53;;;;;;;19.08;13.27;;;12.10;99.90;;;;;;5032843;28;20026;-74
2022/10/30 07:43:19;;;;;;;22.08;15.35;;;12.00;99.90;;;;;;5027184;28;20065;-74
2022/10/30 07:45:45;;;;;;;20.48;13.23;;;12.00;99.90;;;;;;5039180;28;20017;-74
2022/10/30 07:48:11;;;;;;;16.48;13.05;;;12.00;99.90;;;;;;5040350;28;20048;-74
2022/10/30 07:50:36;;;;;;;16.75;13.10;;;12.10;99.90;;;;;;5027720;28;20559;-74
2022/10/30 07:53:02;;;;;;;20.30;13.35;;;12.20;99.90;;;;;;5014996;28;20124;-73
2022/10/30 07:55:27;;;;;;;19.85;12.60;;;12.30;99.90;;;;;;5027661;28;20013;-75
2022/10/30 07:57:53;;;;;;;22.45;14.27;;;12.30;99.90;;;;;;5044049;28;20041;-73
2022/10/30 08:00:19;;;;;;;23.73;15.10;;;12.50;99.90;;;;;;5038487;28;20025;-73
2022/10/30 08:02:49;;;;;;;21.33;14.10;;;12.60;99.90;;;;;;5040200;28;20053;-73
2022/10/30 08:05:14;;;;;;;19.88;13.50;;;12.70;99.90;;;;;;5045406;28;20022;-73
2022/10/30 08:07:40;;;;;;;16.85;12.88;;;12.70;99.90;;;;;;5044050;28;20031;-74
2022/10/30 08:10:07;;;;;;;22.98;13.23;;;12.80;99.90;;;;;;5020579;28;20368;-73
2022/10/30 08:12:33;;;;;;;22.83;14.07;;;12.90;99.90;;;;;;5039623;28;20034;-73
2022/10/30 08:14:59;;;;;;;21.23;13.70;;;13.00;99.90;;;;;;5045432;28;20021;-75
2022/10/30 08:17:24;;;;;;;21.67;12.88;;;13.10;99.90;;;;;;5025852;28;20029;-73
2022/10/30 08:19:50;;;;;;;19.30;13.05;;;13.30;99.90;;;;;;5033048;28;20022;-74
2022/10/30 08:22:16;;;;;;;17.00;11.95;;;13.30;99.90;;;;;;5031728;28;20096;-74
2022/10/30 08:24:43;;;;;;;20.33;12.50;;;13.40;99.90;;;;;;5045323;28;20029;-74
2022/10/30 08:27:08;;;;;;;17.20;11.68;;;13.50;99.90;;;;;;5043608;28;20109;-74
2022/10/30 08:29:34;;;;;;;15.75;11.38;;;13.60;99.90;;;;;;5038298;28;20113;-73
2022/10/30 08:32:00;;;;;;;19.90;11.68;;;13.70;99.90;;;;;;5039834;28;20063;-74
2022/10/30 08:34:26;;;;;;;19.95;12.35;;;13.80;99.90;;;;;;5045074;28;20053;-74
2022/10/30 08:36:52;;;;;;;19.17;11.35;;;13.80;99.90;;;;;;5042939;28;20025;-73
2022/10/30 08:39:18;;;;;;;17.45;11.27;;;13.80;99.90;;;;;;5038046;28;20021;-73
2022/10/30 08:41:44;;;;;;;19.42;11.48;;;13.80;99.90;;;;;;5051562;28;20018;-74
2022/10/30 08:44:10;;;;;;;18.75;11.25;;;13.70;99.90;;;;;;5038132;28;20029;-73
2022/10/30 08:46:35;;;;;;;13.90;9.70;;;13.80;99.90;;;;;;5038823;28;20028;-74
2022/10/30 08:49:01;;;;;;;13.63;9.95;;;13.90;99.90;;;;;;5044804;28;20431;-74
2022/10/30 08:51:27;;;;;;;20.17;9.85;;;13.90;99.90;;;;;;5043841;28;20442;-74
2022/10/30 08:53:52;;;;;;;15.73;10.15;;;13.90;99.90;;;;;;5020338;28;20029;-73
2022/10/30 08:56:18;;;;;;;13.32;9.68;;;14.20;99.90;;;;;;5021123;28;20503;-74
2022/10/30 08:58:43;;;;;;;18.45;9.57;;;14.10;99.90;;;;;;5044465;28;20030;-74
2022/10/30 09:01:10;;;;;;;18.13;9.88;;;14.10;99.90;;;;;;5025691;28;20033;-74
2022/10/30 09:03:37;;;;;;;16.65;8.40;;;14.20;99.90;;;;;;5051275;28;20170;-74
2022/10/30 09:06:03;;;;;;;19.35;9.10;;;14.10;99.90;;;;;;5038520;28;20071;-74
2022/10/30 09:08:29;;;;;;;16.50;9.00;;;14.40;99.90;;;;;;5044385;28;20507;-74
2022/10/30 09:10:57;;;;;;;14.48;9.27;;;14.80;99.90;;;;;;5044079;28;20483;-74
2022/10/30 09:13:24;;;;;;;14.77;8.23;;;14.50;99.90;;;;;;5020042;28;20036;-74
2022/10/30 09:15:50;;;;;;;18.05;9.10;;;14.60;99.90;;;;;;5037796;28;20475;-75
2022/10/30 09:18:16;;;;;;;15.38;9.02;;;14.80;99.90;;;;;;5026358;28;20474;-74
2022/10/30 09:20:41;;;;;;;16.70;8.23;;;14.80;99.90;;;;;;5031032;28;20076;-74
2022/10/30 09:23:07;;;;;;;16.90;9.00;;;15.00;99.90;;;;;;5013482;28;20026;-75
2022/10/30 09:25:33;;;;;;;14.15;8.23;;;15.10;99.90;;;;;;5031133;28;20053;-75
2022/10/30 09:27:58;;;;;;;17.98;8.90;;;15.20;99.90;;;;;;5050625;28;20086;-75
2022/10/30 09:30:24;;;;;;;14.00;8.80;;;15.10;99.90;;;;;;5032863;28;20025;-75
2022/10/30 09:32:58;;;;;;;13.75;7.97;;;15.10;99.90;;;;;;5032924;28;20033;-74
2022/10/30 09:35:24;;;;;;;11.25;7.28;;;15.20;99.90;;;;;;5050753;28;20613;-74
2022/10/30 09:37:50;;;;;;;12.32;7.70;;;15.50;99.90;;;;;;5043141;28;20033;-74
2022/10/30 09:40:50;;;;;;;15.05;7.70;;;15.50;99.90;;;;;;5013063;28;20022;-74
2022/10/30 09:43:31;;;;;;;14.15;7.63;;;15.80;99.90;;;;;;5027762;28;20698;-74
2022/10/30 09:46:24;;;;;;;16.95;7.80;;;15.90;99.90;;;;;;5018110;28;20396;-74
2022/10/30 09:49:12;;;;;;;14.35;7.15;;;16.20;99.90;;;;;;5031563;28;20411;-74
2022/10/30 09:51:52;;;;;;;12.88;7.47;;;16.40;99.90;;;;;;5016916;28;20446;-75
2022/10/30 09:55:09;;;;;;;13.75;6.63;;;16.40;99.90;;;;;;5054347;28;20025;-74
2022/10/30 09:57:46;;;;;;;10.45;6.32;;;16.60;99.90;;;;;;4967168;28;20066;-73
2022/10/30 10:00:16;;;;;;;13.77;6.53;;;16.70;99.90;;;;;;5025638;28;20080;-75
2022/10/30 10:02:54;;;;;;;15.80;6.80;;;16.90;99.90;;;;;;5038085;28;20087;-75
2022/10/30 10:05:24;;;;;;;16.15;6.80;;;16.90;99.90;;;;;;5034250;28;20468;-75
2022/10/30 10:07:59;;;;;;;11.43;6.22;;;16.90;99.90;;;;;;5040832;28;20029;-75
2022/10/30 10:10:47;;;;;;;13.75;6.88;;;17.00;99.90;;;;;;5036061;28;20028;-75
2022/10/30 10:13:28;;;;;;;11.98;6.45;;;17.10;99.90;;;;;;5054141;28;20117;-74
2022/10/30 10:16:21;;;;;;;16.08;6.65;;;17.20;99.90;;;;;;5053915;28;20029;-75
2022/10/30 10:18:46;;;;;;;13.48;6.80;;;17.30;99.90;;;;;;5045273;28;20479;-75
2022/10/30 10:21:24;;;;;;;13.73;6.38;;;17.30;99.90;;;;;;5054974;28;20052;-74
2022/10/30 10:23:53;;;;;;;13.10;5.90;;;17.30;99.90;;;;;;5043336;28;20563;-74
2022/10/30 10:26:18;;;;;;;12.77;5.63;;;17.30;99.90;;;;;;5022983;28;20036;-74
2022/10/30 10:28:44;;;;;;;13.73;6.15;;;17.40;99.90;;;;;;5034903;28;20025;-74
2022/10/30 10:31:09;;;;;;;13.48;6.63;;;17.30;99.90;;;;;;5036023;28;20124;-74
2022/10/30 10:33:45;;;;;;;11.60;6.18;;;17.40;99.90;;;;;;5042201;28;20087;-74
2022/10/30 10:36:20;;;;;;;14.93;5.63;;;17.60;99.90;;;;;;5033719;28;20071;-74
2022/10/30 10:39:04;;;;;;;13.35;6.13;;;17.50;99.90;;;;;;5033399;28;20025;-75
2022/10/30 10:41:56;;;;;;;20.35;7.25;;;17.50;99.90;;;;;;5034484;28;20454;-73
2022/10/30 10:44:48;;;;;;;15.68;6.25;;;17.60;99.90;;;;;;5040920;28;20024;-74
2022/10/30 10:47:39;;;;;;;16.77;6.20;;;17.80;99.90;;;;;;5039969;28;20083;-75
2022/10/30 10:50:23;;;;;;;13.70;5.90;;;17.80;99.90;;;;;;5040242;28;20030;-73
2022/10/30 10:53:03;;;;;;;11.73;6.03;;;18.00;99.90;;;;;;5042852;28;20030;-74
2022/10/30 10:55:35;;;;;;;15.65;6.18;;;18.00;99.90;;;;;;5046856;28;20360;-74
2022/10/30 10:58:37;;;;;;;15.25;5.75;;;17.80;99.90;;;;;;5028560;28;20053;-73
2022/10/30 11:01:08;;;;;;;15.00;6.30;;;17.70;99.90;;;;;;5023731;28;20029;-73
2022/10/30 11:04:01;;;;;;;17.00;6.45;;;18.00;99.90;;;;;;5052144;28;20013;-73
2022/10/30 11:06:32;;;;;;;12.73;5.78;;;17.90;99.90;;;;;;5039776;28;20029;-76
2022/10/30 11:09:12;;;;;;;10.75;5.47;;;18.00;99.90;;;;;;5043118;28;20021;-73
2022/10/30 11:11:37;;;;;;;11.00;6.15;;;18.00;99.90;;;;;;5046613;28;20113;-73
2022/10/30 11:14:16;;;;;;;14.05;6.88;;;18.20;99.90;;;;;;5044773;28;20607;-74
2022/10/30 11:17:09;;;;;;;15.15;6.35;;;18.10;99.90;;;;;;5026691;28;20550;-74
2022/10/30 11:19:34;;;;;;;13.55;6.95;;;18.20;99.90;;;;;;5039615;28;20033;-74
2022/10/30 11:22:00;;;;;;;13.88;6.70;;;18.20;99.90;;;;;;5042155;28;20121;-74
2022/10/30 11:24:35;;;;;;;12.63;6.55;;;18.30;99.90;;;;;;5046053;28;20022;-74
2022/10/30 11:27:22;;;;;;;14.52;6.55;;;18.30;99.90;;;;;;5044574;28;20032;-73
2022/10/30 11:29:55;;;;;;;14.23;6.63;;;18.40;99.90;;;;;;5028291;28;20071;-74
2022/10/30 11:32:25;;;;;;;13.60;6.53;;;18.50;99.90;;;;;;5039226;28;20074;-74
2022/10/30 11:35:12;;;;;;;14.98;6.40;;;18.50;99.90;;;;;;5034903;28;20526;-75
2022/10/30 11:37:40;;;;;;;12.05;6.60;;;18.60;99.90;;;;;;5052038;28;20503;-75
2022/10/30 11:40:12;;;;;;;11.07;6.07;;;18.60;99.90;;;;;;5052357;28;20107;-76
2022/10/30 11:43:00;;;;;;;13.27;6.82;;;18.70;99.90;;;;;;5021270;28;20487;-75
2022/10/30 11:45:31;;;;;;;11.35;5.78;;;18.70;99.90;;;;;;5034398;28;20510;-74
2022/10/30 11:47:58;;;;;;;13.40;5.97;;;18.90;99.90;;;;;;5034490;28;20105;-75
2022/10/30 11:50:29;;;;;;;13.80;6.10;;;19.00;99.90;;;;;;5032254;28;20379;-75
2022/10/30 11:53:00;;;;;;;13.90;6.75;;;19.30;99.90;;;;;;5032347;28;20032;-76
2022/10/30 11:55:36;;;;;;;10.38;5.97;;;19.20;99.90;;;;;;5014579;28;20148;-76
2022/10/30 11:58:07;;;;;;;14.02;5.88;;;19.30;99.90;;;;;;5031773;28;20025;-74
2022/10/30 12:00:35;;;;;;;13.27;5.93;;;19.20;99.90;;;;;;5033928;28;20033;-76
2022/10/30 12:03:00;;;;;;;12.13;6.20;;;19.40;99.90;;;;;;5034000;28;20048;-75
2022/10/30 12:05:26;;;;;;;17.45;6.60;;;19.40;99.90;;;;;;5052024;28;20067;-75
2022/10/30 12:08:14;;;;;;;13.32;6.55;;;19.40;99.90;;;;;;5051738;28;20025;-75
2022/10/30 12:10:52;;;;;;;13.88;7.50;;;19.40;99.90;;;;;;5028658;28;20091;-74
2022/10/30 12:13:19;;;;;;;15.60;6.35;;;19.40;99.90;;;;;;5021748;28;20026;-76
2022/10/30 12:15:48;;;;;;;15.40;5.90;;;19.40;99.90;;;;;;5036366;28;20491;-75
2022/10/30 12:18:24;;;;;;;13.10;6.47;;;19.40;99.90;;;;;;5044346;28;20018;-75
2022/10/30 12:20:54;;;;;;;13.95;6.13;;;19.40;99.90;;;;;;5025493;28;20477;-76
2022/10/30 12:23:24;;;;;;;15.02;6.05;;;19.50;99.90;;;;;;5014092;28;20029;-76
2022/10/30 12:26:10;;;;;;;11.13;5.60;;;19.50;99.90;;;;;;5031767;28;20018;-76
2022/10/30 12:28:37;;;;;;;14.13;6.43;;;19.40;99.90;;;;;;5031593;28;20029;-75
2022/10/30 12:31:03;;;;;;;11.38;5.65;;;19.70;99.90;;;;;;5036510;28;20040;-75
2022/10/30 12:33:41;;;;;;;12.40;5.72;;;19.50;99.90;;;;;;5039913;28;20403;-76
2022/10/30 12:36:18;;;;;;;13.13;6.78;;;19.40;99.90;;;;;;5031619;28;20033;-75
2022/10/30 12:38:50;;;;;;;11.95;5.93;;;19.40;99.90;;;;;;5032900;28;20083;-74
2022/10/30 12:41:30;;;;;;;13.40;6.38;;;19.60;99.90;;;;;;5042519;28;20383;-74
2022/10/30 12:44:02;;;;;;;11.85;6.18;;;19.70;99.90;;;;;;5044549;28;20025;-74